Time;durP1;ratioP1;P1;durP2;ratioP2;P2;SDS_P1;SDS_P2;PMS_P1;PMS_P2;Temp;Humidity;BMP_temperature;BMP_pressure;BME280_temperature;BME280_humidity;BME280_pressure;Samples;Min_cycle;Max_cycle;Signal;HPM_P1;HPM_P2
2022/01/06 10:18:17;;;;;;;12.60;2.50;;;;;;;;;;6275916;22;20048;-91
2022/01/06 10:20:58;;;;;;;11.90;2.40;;;;;;;;;;6274314;22;20011;-93
2022/01/06 10:23:39;;;;;;;10.35;2.70;;;;;;;;;;6274883;22;20034;-92
2022/01/06 11:07:48;;;;;;;11.60;2.47;;;;;;;;;;6274523;22;20075;-92
2022/01/06 11:10:30;;;;;;;14.20;3.08;;;;;;;;;;6272160;22;20035;-93
2022/01/06 11:13:11;;;;;;;13.25;2.40;;;;;;;;;;6274238;22;20006;-94
2022/01/06 11:15:54;;;;;;;8.05;2.45;;;;;;;;;;6270744;22;20007;-93
2022/01/06 11:18:38;;;;;;;11.32;2.60;;;;;;;;;;6250043;22;20031;-94
2022/01/06 11:21:34;;;;;;;8.63;2.13;;;;;;;;;;6248319;23;20027;-94
2022/01/06 11:24:24;;;;;;;10.93;2.47;;;;;;;;;;6210887;23;20029;-94
2022/01/06 11:27:10;;;;;;;10.53;2.37;;;;;;;;;;6175711;22;20818;31
2022/01/06 11:30:06;;;;;;;13.48;3.03;;;;;;;;;;6189542;23;20008;-94
2022/01/06 12:16:22;;;;;;;14.13;2.63;;;;;;;;;;6234656;22;20117;-93
2022/01/06 12:43:51;;;;;;;14.13;3.83;;;;;;;;;;6273496;22;20035;-94
2022/01/06 12:46:29;;;;;;;12.68;2.53;;;;;;;;;;6249471;22;20016;-94
2022/01/06 12:55:42;;;;;;;26.60;3.80;;;;;;;;;;6271132;22;20062;-95
2022/01/06 12:58:22;;;;;;;10.43;2.75;;;;;;;;;;6226834;22;20016;-94
2022/01/06 13:01:05;;;;;;;13.80;2.47;;;;;;;;;;6245294;22;20042;-92
2022/01/06 13:03:51;;;;;;;13.02;2.47;;;;;;;;;;6250501;22;20036;-94
2022/01/06 13:06:23;;;;;;;8.32;2.13;;;;;;;;;;6221223;22;20012;-94
2022/01/06 13:08:56;;;;;;;19.73;2.90;;;;;;;;;;6276420;22;20008;-94
2022/01/06 13:11:28;;;;;;;11.70;2.40;;;;;;;;;;6273393;22;20031;-95
2022/01/06 13:14:02;;;;;;;12.80;2.85;;;;;;;;;;6273928;22;20020;-94
2022/01/06 13:16:55;;;;;;;;;;;;;;;;;;;;;
2022/01/06 13:19:27;;;;;;;15.27;2.90;;;;;;;;;;6296275;22;20020;-94
2022/01/06 13:22:04;;;;;;;19.65;3.10;;;;;;;;;;6272557;22;20026;-94
2022/01/06 13:24:36;;;;;;;13.90;2.58;;;;;;;;;;6270094;22;20039;-93
2022/01/06 13:27:16;;;;;;;11.18;2.50;;;;;;;;;;6272596;22;20020;-94
2022/01/06 13:29:52;;;;;;;16.77;2.45;;;;;;;;;;6271897;22;20077;-94
2022/01/06 13:32:27;;;;;;;11.20;2.55;;;;;;;;;;6278487;22;20091;-94
2022/01/06 13:35:05;;;;;;;21.95;2.72;;;;;;;;;;6277261;22;20014;-95
2022/01/06 13:37:33;;;;;;;13.98;3.08;;;;;;;;;;6278847;22;20014;-94
2022/01/06 13:40:03;;;;;;;15.55;2.67;;;;;;;;;;6297431;22;20045;-95
2022/01/06 13:42:32;;;;;;;18.67;2.42;;;;;;;;;;6270381;22;20027;-95
2022/01/06 13:45:29;;;;;;;8.80;2.67;;;;;;;;;;6274131;22;20068;-95
2022/01/06 13:51:04;;;;;;;23.95;3.17;;;;;;;;;;6272089;22;20301;-94
2022/01/06 13:51:30;;;;;;;12.50;2.17;;;;;;;;;;6276770;22;20027;-95
2022/01/06 13:54:05;;;;;;;14.85;2.65;;;;;;;;;;6269823;22;20020;-94
2022/01/06 13:56:40;;;;;;;9.55;2.60;;;;;;;;;;6272593;22;20027;-93
2022/01/06 13:59:09;;;;;;;16.73;3.08;;;;;;;;;;6269149;22;20023;-93
2022/01/06 14:01:37;;;;;;;15.18;2.85;;;;;;;;;;6267380;22;20023;-93
2022/01/06 14:04:05;;;;;;;16.17;3.45;;;;;;;;;;6270820;22;20020;-93
2022/01/06 14:06:33;;;;;;;17.75;2.50;;;;;;;;;;6274399;22;20050;-92
2022/01/06 14:08:59;;;;;;;16.35;3.00;;;;;;;;;;6274847;22;20020;-94
2022/01/06 14:14:49;;;;;;;19.08;3.72;;;;;;;;;;6305191;22;20020;-93
2022/01/06 14:17:17;;;;;;;17.80;3.25;;;;;;;;;;6278179;22;20023;-93
2022/01/06 14:19:46;;;;;;;22.08;3.90;;;;;;;;;;6279503;22;20019;-93
2022/01/06 14:22:25;;;;;;;19.70;3.25;;;;;;;;;;6279536;22;20008;-94
2022/01/06 14:25:06;;;;;;;15.77;3.40;;;;;;;;;;6275168;22;20065;-93
2022/01/06 14:27:33;;;;;;;20.52;3.63;;;;;;;;;;6270076;22;20034;-94
2022/01/06 14:30:04;;;;;;;18.08;3.30;;;;;;;;;;6268951;22;20024;-94
2022/01/06 14:32:42;;;;;;;16.98;3.28;;;;;;;;;;6270197;22;20023;-94
2022/01/06 14:35:09;;;;;;;17.88;3.80;;;;;;;;;;6269764;22;20008;-94
2022/01/06 14:37:38;;;;;;;24.05;4.13;;;;;;;;;;6273051;22;20020;-94
2022/01/06 14:40:08;;;;;;;22.63;3.67;;;;;;;;;;6269532;22;20103;-94
2022/01/06 14:42:49;;;;;;;18.60;3.30;;;;;;;;;;6267115;22;20008;-94
2022/01/06 14:45:28;;;;;;;13.02;3.08;;;;;;;;;;6270757;22;20050;-94
2022/01/06 14:48:02;;;;;;;21.35;3.30;;;;;;;;;;6243190;22;20191;-94
2022/01/06 14:50:32;;;;;;;27.38;3.63;;;;;;;;;;6269237;22;20095;-94
2022/01/06 14:53:02;;;;;;;15.25;3.42;;;;;;;;;;6266185;22;20094;-95
2022/01/06 14:55:36;;;;;;;13.80;3.53;;;;;;;;;;6267174;22;20019;-94
2022/01/06 14:58:04;;;;;;;23.17;3.42;;;;;;;;;;6263936;22;20019;-93
2022/01/06 15:00:32;;;;;;;19.67;3.53;;;;;;;;;;6265595;22;20047;-94
2022/01/06 15:03:11;;;;;;;15.32;3.90;;;;;;;;;;6265742;22;20050;-95
2022/01/06 15:05:38;;;;;;;21.30;5.50;;;;;;;;;;6265473;22;20031;-94
2022/01/06 15:08:07;;;;;;;12.50;3.17;;;;;;;;;;6265561;22;20024;-95
2022/01/06 15:10:53;;;;;;;25.02;5.28;;;;;;;;;;6264093;22;20019;-95
2022/01/06 15:13:21;;;;;;;24.83;3.72;;;;;;;;;;6266085;22;20019;-93
2022/01/06 15:16:00;;;;;;;20.33;3.80;;;;;;;;;;6268252;22;20073;-94
2022/01/06 15:18:28;;;;;;;24.73;4.38;;;;;;;;;;6267632;22;20292;-93
2022/01/06 15:21:00;;;;;;;19.63;3.35;;;;;;;;;;6267624;22;20046;-93
2022/01/06 15:23:30;;;;;;;22.75;3.60;;;;;;;;;;6268330;22;20031;-93
2022/01/06 15:26:35;;;;;;;30.00;3.72;;;;;;;;;;6273236;22;20326;-93
2022/01/06 15:29:02;;;;;;;18.90;3.45;;;;;;;;;;6274253;22;20037;-94
2022/01/06 15:32:05;;;;;;;27.98;3.55;;;;;;;;;;6295615;22;20039;-93
2022/01/06 15:34:38;;;;;;;23.20;3.58;;;;;;;;;;6269471;22;20020;-93
2022/01/06 15:37:48;;;;;;;19.17;3.70;;;;;;;;;;6273070;22;20110;-94
2022/01/06 15:40:15;;;;;;;22.63;4.13;;;;;;;;;;6273142;22;20220;-93
2022/01/06 15:42:42;;;;;;;24.77;3.38;;;;;;;;;;6272356;22;20026;-95
2022/01/06 15:45:29;;;;;;;16.33;4.68;;;;;;;;;;6275330;22;20024;-94
2022/01/06 15:48:10;;;;;;;27.20;4.93;;;;;;;;;;6275840;22;20023;-93
2022/01/06 15:50:45;;;;;;;20.25;4.10;;;;;;;;;;6276788;22;20020;-93
2022/01/06 15:53:13;;;;;;;20.42;3.88;;;;;;;;;;6273099;22;20054;-94
2022/01/06 15:55:55;;;;;;;30.65;4.28;;;;;;;;;;6296482;22;20039;-94
2022/01/06 15:58:32;;;;;;;23.77;3.67;;;;;;;;;;6276658;22;20007;-93
2022/01/06 16:07:11;;;;;;;18.67;3.72;;;;;;;;;;6281176;22;20328;-94
2022/01/06 16:09:38;;;;;;;23.77;4.22;;;;;;;;;;6268046;22;20012;-94
2022/01/06 16:12:06;;;;;;;28.98;5.07;;;;;;;;;;6267690;22;20012;-94
2022/01/06 16:14:46;;;;;;;16.60;3.53;;;;;;;;;;6238341;23;20090;-94
2022/01/06 16:17:13;;;;;;;19.23;3.50;;;;;;;;;;6265669;23;20077;-95
2022/01/06 16:19:45;;;;;;;23.50;3.78;;;;;;;;;;6267252;22;20027;-93
2022/01/06 16:22:25;;;;;;;23.48;4.35;;;;;;;;;;6266565;23;20024;-93
2022/01/06 16:39:08;;;;;;;29.00;4.80;;;;;;;;;;6275107;22;20030;-95
2022/01/06 16:41:37;;;;;;;26.00;4.75;;;;;;;;;;6274181;22;20016;-93
2022/01/06 16:44:06;;;;;;;23.48;5.55;;;;;;;;;;6274174;22;20008;-93
2022/01/06 16:46:44;;;;;;;31.48;4.32;;;;;;;;;;6274130;22;20011;-93
2022/01/06 16:49:11;;;;;;;20.48;4.15;;;;;;;;;;6274154;22;20024;-94
2022/01/06 16:51:40;;;;;;;27.88;6.65;;;;;;;;;;6274240;22;20004;-93
2022/01/06 18:11:44;;;;;;;35.60;12.00;;;;;;;;;;6245124;23;20056;-92
2022/01/06 18:14:30;;;;;;;45.05;17.25;;;;;;;;;;6244762;22;20008;-92
2022/01/06 18:16:58;;;;;;;150.95;62.25;;;;;;;;;;6244657;22;20063;-92
2022/01/06 18:19:26;;;;;;;36.20;9.35;;;;;;;;;;6244738;22;20005;-92
2022/01/06 18:25:19;;;;;;;24.45;5.45;;;;;;;;;;6245636;22;20023;-93
2022/01/06 18:27:47;;;;;;;30.65;6.20;;;;;;;;;;6243857;22;20331;-95
2022/01/06 18:30:14;;;;;;;29.92;5.90;;;;;;;;;;6243876;22;20012;-94
2022/01/06 18:39:32;;;;;;;27.65;5.97;;;;;;;;;;6242229;22;20014;-92
2022/01/06 18:42:06;;;;;;;24.67;5.38;;;;;;;;;;6273836;22;20015;-94
2022/01/06 18:44:36;;;;;;;27.10;5.28;;;;;;;;;;6273610;22;20008;-92
2022/01/06 18:47:31;;;;;;;33.13;6.60;;;;;;;;;;6274832;22;20067;-92
2022/01/06 18:52:53;;;;;;;22.52;5.20;;;;;;;;;;6216872;22;20000;-95
2022/01/06 18:55:35;;;;;;;32.28;5.30;;;;;;;;;;6272151;22;20016;-94
2022/01/06 18:58:05;;;;;;;39.10;6.70;;;;;;;;;;6273532;22;20092;-94
2022/01/06 19:00:32;;;;;;;23.85;4.85;;;;;;;;;;6272925;22;20024;-94
2022/01/06 19:03:00;;;;;;;29.73;5.53;;;;;;;;;;6272749;22;20008;-94
2022/01/06 19:05:29;;;;;;;24.98;5.28;;;;;;;;;;6271749;22;20033;-94
2022/01/06 19:08:06;;;;;;;23.45;5.65;;;;;;;;;;6272262;22;20004;-94
2022/01/06 19:10:34;;;;;;;26.98;7.05;;;;;;;;;;6271896;22;20018;-94
2022/01/06 19:13:03;;;;;;;34.78;6.43;;;;;;;;;;6272037;22;20056;-92
2022/01/06 19:15:44;;;;;;;27.77;10.25;;;;;;;;;;6273005;22;20023;-93
2022/01/06 19:18:21;;;;;;;54.10;20.38;;;;;;;;;;6273128;22;20012;-92
2022/01/06 19:20:53;;;;;;;29.83;6.53;;;;;;;;;;6273280;22;20008;-94
2022/01/06 19:23:21;;;;;;;27.25;6.25;;;;;;;;;;6273374;22;20008;-94
2022/01/06 19:25:50;;;;;;;27.60;6.13;;;;;;;;;;6272839;22;20030;-93
2022/01/06 19:32:07;;;;;;;29.63;5.72;;;;;;;;;;6274431;22;20032;-94
2022/01/06 19:34:34;;;;;;;23.35;5.22;;;;;;;;;;6273333;22;20012;-93
2022/01/06 19:39:38;;;;;;;30.60;5.50;;;;;;;;;;6263128;22;20003;-94
2022/01/06 19:42:09;;;;;;;24.70;4.88;;;;;;;;;;6275556;23;20424;-95
2022/01/06 19:44:53;;;;;;;35.67;6.35;;;;;;;;;;6274237;23;20051;-94
2022/01/06 19:47:25;;;;;;;27.00;6.90;;;;;;;;;;6275490;23;20031;-94
2022/01/06 19:49:52;;;;;;;34.88;7.47;;;;;;;;;;6270057;22;20066;-94
2022/01/06 19:52:47;;;;;;;38.78;7.22;;;;;;;;;;6274142;22;20011;-94
2022/01/06 19:55:20;;;;;;;38.25;7.55;;;;;;;;;;6273806;22;20034;-95
2022/01/06 19:57:48;;;;;;;28.48;7.07;;;;;;;;;;6273975;22;20004;-94
2022/01/06 20:00:29;;;;;;;26.58;7.25;;;;;;;;;;6264603;22;20012;-92
2022/01/06 20:02:57;;;;;;;35.50;8.30;;;;;;;;;;6274417;22;20011;-93
2022/01/06 20:05:27;;;;;;;31.60;10.07;;;;;;;;;;6274515;22;20008;-93
2022/01/06 20:08:08;;;;;;;36.20;9.93;;;;;;;;;;6269569;22;20008;-93
2022/01/06 20:10:49;;;;;;;32.80;8.70;;;;;;;;;;6273042;22;20034;-95
2022/01/06 20:13:22;;;;;;;44.63;10.25;;;;;;;;;;6274475;22;20008;-95
2022/01/06 20:37:12;;;;;;;48.53;14.00;;;;;;;;;;6284336;22;20059;-93
2022/01/06 20:39:50;;;;;;;;;;;;;;;;;;6302425;22;20007;-93
2022/01/06 20:42:22;;;;;;;34.55;13.25;;;;;;;;;;6304755;22;19939;-94
2022/01/06 20:45:06;;;;;;;41.33;14.02;;;;;;;;;;6304509;22;20015;-94
2022/01/06 20:53:15;;;;;;;39.20;15.48;;;;;;;;;;6304883;22;20010;-94
2022/01/06 20:55:43;;;;;;;41.60;16.83;;;;;;;;;;6304232;22;20030;-94
2022/01/06 20:58:12;;;;;;;39.08;16.30;;;;;;;;;;6277951;22;20034;-92
2022/01/06 21:00:48;;;;;;;40.80;17.23;;;;;;;;;;6303694;22;20008;-94
2022/01/06 21:03:29;;;;;;;39.53;16.77;;;;;;;;;;6303158;22;20010;-94
2022/01/06 21:09:44;;;;;;;41.90;18.45;;;;;;;;;;6304546;22;20034;-93
2022/01/06 21:12:14;;;;;;;49.38;18.65;;;;;;;;;;6301863;22;20089;-95
2022/01/06 21:14:45;;;;;;;49.35;18.58;;;;;;;;;;6300425;22;20190;-93
2022/01/06 21:17:12;;;;;;;45.17;17.33;;;;;;;;;;6301462;22;20033;-94
2022/01/06 21:19:46;;;;;;;47.58;18.77;;;;;;;;;;6301899;22;20024;-94
2022/01/06 21:22:13;;;;;;;51.50;19.30;;;;;;;;;;6302132;22;20118;-94
2022/01/06 21:24:40;;;;;;;47.80;20.02;;;;;;;;;;6300066;22;20030;-94
2022/01/06 21:27:32;;;;;;;50.17;19.08;;;;;;;;;;6300778;22;20011;-93
2022/01/06 21:30:06;;;;;;;58.67;19.60;;;;;;;;;;6299929;22;20018;-93
2022/01/06 21:32:49;;;;;;;51.20;21.42;;;;;;;;;;6300937;22;20019;-94
2022/01/06 21:35:17;;;;;;;47.03;20.42;;;;;;;;;;6300165;22;20026;-94
2022/01/06 21:37:45;;;;;;;53.15;21.70;;;;;;;;;;6299401;22;20055;-94
2022/01/06 21:40:43;;;;;;;56.88;21.63;;;;;;;;;;6302744;22;20035;-93
2022/01/06 21:43:10;;;;;;;62.30;21.75;;;;;;;;;;6302204;22;20007;-94
2022/01/06 21:45:37;;;;;;;55.17;21.65;;;;;;;;;;6299980;22;20011;-94
2022/01/06 21:48:08;;;;;;;49.53;20.45;;;;;;;;;;6302274;22;20015;-93
2022/01/06 21:50:35;;;;;;;63.13;24.50;;;;;;;;;;6301132;22;20019;-94
2022/01/06 21:53:02;;;;;;;63.45;22.38;;;;;;;;;;6303616;22;20030;-93
2022/01/06 21:55:38;;;;;;;58.85;22.70;;;;;;;;;;6303366;22;20020;-94
2022/01/06 21:58:05;;;;;;;;;;;;;;;;;;6303459;22;20014;-94
2022/01/06 22:00:31;;;;;;;;;;;;;;;;;;6303457;22;20243;-94
2022/01/06 22:03:03;;;;;;;69.10;24.05;;;;;;;;;;6301991;22;19915;-94
2022/01/06 22:05:31;;;;;;;65.07;24.60;;;;;;;;;;6303387;22;20007;-94
2022/01/06 22:07:59;;;;;;;51.72;24.65;;;;;;;;;;6275709;22;20035;-94
2022/01/06 22:10:29;;;;;;;65.05;25.25;;;;;;;;;;6271789;22;20227;-93
2022/01/06 22:12:59;;;;;;;62.05;25.50;;;;;;;;;;6268905;23;20023;-93
2022/01/06 22:15:26;;;;;;;64.93;24.25;;;;;;;;;;6270244;22;20031;-94
2022/01/06 22:17:55;;;;;;;67.43;26.65;;;;;;;;;;6272097;22;20012;-94
2022/01/06 22:20:29;;;;;;;54.30;24.75;;;;;;;;;;6273393;22;20133;-94
2022/01/06 22:22:55;;;;;;;56.40;25.67;;;;;;;;;;6272077;22;20039;-92
2022/01/06 22:25:22;;;;;;;57.92;26.13;;;;;;;;;;6272682;22;20055;-93
2022/01/06 22:27:49;;;;;;;63.53;25.23;;;;;;;;;;6273338;22;20038;-94
2022/01/06 22:30:16;;;;;;;62.92;25.40;;;;;;;;;;6272412;22;20004;-95
2022/01/06 22:32:43;;;;;;;57.03;24.00;;;;;;;;;;6271584;22;20024;-94
2022/01/06 22:35:20;;;;;;;62.03;24.35;;;;;;;;;;6270463;23;20024;-93
2022/01/06 22:37:48;;;;;;;66.10;24.15;;;;;;;;;;6271732;22;20076;-93
2022/01/06 22:40:16;;;;;;;62.03;25.70;;;;;;;;;;6270429;23;20007;-94
2022/01/06 22:42:43;;;;;;;63.60;24.13;;;;;;;;;;6270967;22;20032;-94
2022/01/06 22:45:23;;;;;;;60.92;22.52;;;;;;;;;;6271462;23;20008;-93
2022/01/06 22:47:52;;;;;;;60.25;23.20;;;;;;;;;;6273199;22;20015;-95
2022/01/06 22:50:21;;;;;;;49.03;22.98;;;;;;;;;;6270384;22;20024;-94
2022/01/06 22:52:57;;;;;;;56.38;23.65;;;;;;;;;;6272404;22;20043;-95
2022/01/06 22:55:26;;;;;;;55.55;22.00;;;;;;;;;;6272564;23;20019;-95
2022/01/06 22:58:26;;;;;;;54.42;23.30;;;;;;;;;;6272987;22;20042;-94
2022/01/06 23:00:53;;;;;;;56.17;23.17;;;;;;;;;;6272848;22;20008;-95
2022/01/06 23:03:22;;;;;;;54.00;23.17;;;;;;;;;;6270950;22;20012;-95
2022/01/06 23:05:56;;;;;;;49.10;21.85;;;;;;;;;;6270563;22;20039;-94
2022/01/06 23:08:24;;;;;;;58.03;22.92;;;;;;;;;;6272451;22;20028;-94
2022/01/06 23:10:51;;;;;;;59.55;23.23;;;;;;;;;;6272377;22;20079;-93
2022/01/06 23:13:18;;;;;;;55.58;22.17;;;;;;;;;;6272326;22;20012;-93
2022/01/06 23:15:44;;;;;;;59.63;23.75;;;;;;;;;;6271993;22;20024;-94
2022/01/06 23:18:11;;;;;;;56.60;22.48;;;;;;;;;;6270485;23;20034;-94
2022/01/06 23:20:38;;;;;;;62.05;23.73;;;;;;;;;;6273236;22;20004;-94
2022/01/06 23:23:05;;;;;;;60.90;24.88;;;;;;;;;;6271474;23;20071;-94
2022/01/06 23:25:32;;;;;;;64.93;23.67;;;;;;;;;;6270362;22;20088;-94
2022/01/06 23:27:59;;;;;;;63.65;22.88;;;;;;;;;;6270342;23;20085;-95
2022/01/06 23:30:39;;;;;;;54.60;23.77;;;;;;;;;;6270942;22;20024;-94
2022/01/06 23:33:08;;;;;;;55.20;23.00;;;;;;;;;;6268794;23;20031;-94
2022/01/06 23:35:35;;;;;;;61.58;23.88;;;;;;;;;;6268286;23;20020;-94
2022/01/06 23:38:08;;;;;;;50.35;20.15;;;;;;;;;;6271428;22;20046;-93
2022/01/06 23:40:35;;;;;;;53.67;22.83;;;;;;;;;;6269894;23;20086;-94
2022/01/06 23:43:02;;;;;;;57.78;22.75;;;;;;;;;;6269764;22;20008;-93
2022/01/06 23:45:41;;;;;;;57.97;23.63;;;;;;;;;;6272469;22;20011;-94
2022/01/06 23:48:09;;;;;;;61.90;25.08;;;;;;;;;;6272484;22;20035;-93
2022/01/06 23:50:36;;;;;;;66.78;25.63;;;;;;;;;;6271625;22;20018;-93
2022/01/06 23:53:02;;;;;;;51.85;21.02;;;;;;;;;;6269246;23;20028;-94
2022/01/06 23:58:52;;;;;;;59.05;24.38;;;;;;;;;;6271529;22;20038;-94
